Time;durP1;ratioP1;P1;durP2;ratioP2;P2;SDS_P1;SDS_P2;PMS_P1;PMS_P2;Temp;Humidity;BMP_temperature;BMP_pressure;BME280_temperature;BME280_humidity;BME280_pressure;Samples;Min_cycle;Max_cycle;Signal;HPM_P1;HPM_P2
2023/04/15 00:00:12;;;;;;;4.00;1.70;;;;;;;16.76;56.31;98101.41;4944269;28;20046;-79
2023/04/15 00:02:38;;;;;;;5.82;2.00;;;;;;;16.76;56.31;98098.78;4976787;28;20062;-79
2023/04/15 00:05:04;;;;;;;5.90;1.63;;;;;;;16.70;56.25;98082.81;4960434;28;20034;-79
2023/04/15 00:07:30;;;;;;;3.67;1.48;;;;;;;16.73;56.64;98093.00;4944682;28;20031;-77
2023/04/15 00:09:56;;;;;;;6.30;1.73;;;;;;;16.73;56.41;98101.75;4976746;28;20030;-77
2023/04/15 00:12:25;;;;;;;4.82;1.83;;;;;;;16.70;56.75;98102.09;4993884;28;20081;-77
2023/04/15 00:14:51;;;;;;;5.55;1.65;;;;;;;16.71;56.35;98113.47;4960653;28;20026;-77
2023/04/15 00:17:17;;;;;;;7.45;1.70;;;;;;;16.69;56.31;98112.81;4960676;28;20409;-77
2023/04/15 00:19:44;;;;;;;5.20;1.90;;;;;;;16.67;56.50;98107.72;4960467;28;20042;-77
2023/04/15 00:22:10;;;;;;;7.05;1.83;;;;;;;16.66;56.32;98113.16;4961027;28;20034;-77
2023/04/15 00:24:35;;;;;;;4.38;1.67;;;;;;;16.64;56.45;98094.88;4976356;28;20505;-77
2023/04/15 00:27:01;;;;;;;4.47;1.55;;;;;;;16.59;56.38;98100.66;4976221;28;20508;-77
2023/04/15 00:29:27;;;;;;;7.85;2.00;;;;;;;16.59;56.51;98129.66;4944664;28;20033;-78
2023/04/15 00:31:52;;;;;;;5.32;1.70;;;;;;;16.61;56.48;98134.75;4949835;28;20402;-78
2023/04/15 00:34:18;;;;;;;5.95;2.17;;;;;;;16.57;56.48;98136.91;4993432;28;20478;-77
2023/04/15 00:36:43;;;;;;;7.00;1.80;;;;;;;16.56;56.71;98124.72;4959750;28;20066;-78
2023/04/15 00:39:09;;;;;;;5.30;1.63;;;;;;;16.55;56.75;98127.53;4944135;28;20034;-77
2023/04/15 00:41:38;;;;;;;5.15;1.92;;;;;;;16.45;56.95;98081.13;4976155;28;20038;-77
2023/04/15 00:44:04;;;;;;;6.00;2.58;;;;;;;16.45;57.07;98083.75;4960049;28;20040;-78
2023/04/15 00:46:30;;;;;;;7.68;2.58;;;;;;;16.43;57.30;98098.91;4976625;28;20053;-79
2023/04/15 00:48:56;;;;;;;6.55;2.55;;;;;;;16.38;57.16;98101.25;4960165;28;20114;-80
2023/04/15 00:51:21;;;;;;;8.30;2.40;;;;;;;16.42;57.15;98122.78;4959562;28;20133;-80
2023/04/15 00:53:47;;;;;;;4.57;2.10;;;;;;;16.41;57.23;98106.19;4959000;28;20125;-79
2023/04/15 00:56:12;;;;;;;5.85;2.47;;;;;;;16.40;57.25;98115.06;4993101;28;20026;-79
2023/04/15 00:58:38;;;;;;;5.22;2.35;;;;;;;16.38;57.17;98127.59;4960007;28;20041;-78
2023/04/15 01:01:03;;;;;;;6.25;2.30;;;;;;;16.37;57.42;98125.94;4975806;28;20065;-78
2023/04/15 01:03:29;;;;;;;5.20;2.00;;;;;;;16.37;57.30;98109.31;4959831;28;20028;-78
2023/04/15 01:05:57;;;;;;;5.63;2.10;;;;;;;16.36;57.37;98102.41;4958791;28;20034;-78
2023/04/15 01:08:28;;;;;;;4.72;2.05;;;;;;;16.31;57.09;98084.47;4943975;28;20057;-78
2023/04/15 01:11:00;;;;;;;6.85;2.30;;;;;;;16.29;57.34;98083.81;4960058;28;20047;-78
2023/04/15 01:13:25;;;;;;;9.60;2.20;;;;;;;16.27;57.28;98083.16;4959784;28;20030;-78
2023/04/15 01:15:51;;;;;;;7.03;2.00;;;;;;;16.23;57.27;98081.88;4974778;28;20387;-77
2023/04/15 01:18:18;;;;;;;5.63;2.33;;;;;;;16.21;57.32;98092.56;4943335;28;20042;-79
2023/04/15 01:20:43;;;;;;;4.45;1.95;;;;;;;16.19;57.38;98094.56;4959237;28;20065;-79
2023/04/15 01:23:09;;;;;;;7.78;2.47;;;;;;;16.21;57.35;98084.66;4975552;28;20506;-78
2023/04/15 01:25:34;;;;;;;4.30;2.00;;;;;;;16.21;57.44;98079.41;4959329;28;20541;-79
2023/04/15 01:28:00;;;;;;;8.25;2.35;;;;;;;16.21;57.23;98068.06;4943124;28;20042;-79
2023/04/15 01:30:28;;;;;;;7.22;2.30;;;;;;;16.16;57.25;98060.66;4961602;28;20030;-79
2023/04/15 01:32:54;;;;;;;6.30;2.22;;;;;;;16.18;57.39;98063.13;4979916;28;20030;-79
2023/04/15 01:35:20;;;;;;;4.53;2.67;;;;;;;16.17;57.42;98072.81;4995017;28;20034;-79
2023/04/15 01:37:46;;;;;;;7.95;2.10;;;;;;;16.21;57.34;98086.50;4994748;28;20030;-79
2023/04/15 01:40:12;;;;;;;7.05;2.40;;;;;;;16.20;57.34;98101.44;4994707;28;20038;-79
2023/04/15 01:42:38;;;;;;;7.22;2.67;;;;;;;16.19;57.59;98113.00;4995553;28;20030;-79
2023/04/15 01:45:04;;;;;;;6.78;2.30;;;;;;;16.18;57.49;98121.88;4994988;28;20045;-80
2023/04/15 01:47:29;;;;;;;6.22;2.70;;;;;;;16.18;57.27;98107.88;4965479;28;20033;-80
2023/04/15 01:49:55;;;;;;;5.72;2.10;;;;;;;16.18;57.46;98084.19;4982716;28;20029;-80
2023/04/15 01:52:21;;;;;;;5.20;2.03;;;;;;;16.20;57.43;98072.47;4982066;28;20445;-80
2023/04/15 01:54:46;;;;;;;3.72;2.30;;;;;;;16.19;57.54;98085.81;4998505;28;20042;-80
2023/04/15 01:57:12;;;;;;;6.20;2.40;;;;;;;16.17;57.46;98077.28;4981606;28;20100;-80
2023/04/15 01:59:37;;;;;;;8.13;2.00;;;;;;;16.16;57.48;98073.81;4982459;28;20452;-80
2023/04/15 02:02:03;;;;;;;3.75;2.10;;;;;;;16.14;57.66;98067.88;4998731;28;20053;-79
2023/04/15 02:04:29;;;;;;;7.82;2.25;;;;;;;16.12;57.71;98084.84;4998671;28;20057;-79
2023/04/15 02:06:54;;;;;;;6.00;1.98;;;;;;;16.08;57.37;98100.16;4998370;28;20045;-79
2023/04/15 02:09:20;;;;;;;9.68;2.40;;;;;;;16.09;57.49;98123.69;4998182;28;20042;-78
2023/04/15 02:11:45;;;;;;;4.40;1.77;;;;;;;16.06;57.52;98150.34;4982825;28;20413;-81
2023/04/15 02:14:11;;;;;;;5.53;1.90;;;;;;;16.05;57.69;98148.72;4998645;28;20030;-80
2023/04/15 02:16:37;;;;;;;7.25;1.88;;;;;;;16.03;57.67;98148.03;4998368;28;20100;-80
2023/04/15 02:19:02;;;;;;;7.25;2.30;;;;;;;16.04;57.72;98160.22;4997999;28;20038;-80
2023/04/15 02:21:28;;;;;;;5.70;1.98;;;;;;;16.05;57.77;98176.81;4998459;28;20096;-80
2023/04/15 02:23:54;;;;;;;5.45;2.20;;;;;;;16.06;57.62;98178.47;4997515;28;20044;-81
2023/04/15 02:26:21;;;;;;;4.97;1.80;;;;;;;16.05;57.88;98177.66;4981983;28;20038;-78
2023/04/15 02:28:47;;;;;;;4.10;1.80;;;;;;;16.08;57.80;98165.97;4998521;28;20037;-74
2023/04/15 02:31:12;;;;;;;8.02;2.05;;;;;;;16.09;57.78;98167.63;4981237;28;20038;-78
2023/04/15 02:33:37;;;;;;;7.43;2.05;;;;;;;16.09;57.63;98165.81;4998131;28;20465;-77
2023/04/15 02:36:03;;;;;;;6.35;1.70;;;;;;;16.06;57.87;98154.78;4997838;28;20068;-79
2023/04/15 02:38:30;;;;;;;4.07;1.60;;;;;;;16.09;58.00;98143.94;4965592;28;20033;-78
2023/04/15 02:40:56;;;;;;;3.08;1.50;;;;;;;16.06;57.85;98115.31;4998124;28;20404;-80
2023/04/15 02:43:22;;;;;;;4.32;1.80;;;;;;;16.12;57.90;98106.72;4998644;28;20026;-77
2023/04/15 02:45:47;;;;;;;4.80;1.55;;;;;;;16.09;57.81;98086.81;4981404;28;20477;-77
2023/04/15 02:48:13;;;;;;;5.43;1.58;;;;;;;16.12;57.76;98087.50;4997696;28;20033;-77
2023/04/15 02:50:39;;;;;;;3.88;1.60;;;;;;;16.12;57.66;98088.31;4997304;28;20042;-77
2023/04/15 02:53:05;;;;;;;5.05;1.50;;;;;;;16.10;57.66;98083.22;4981219;28;20091;-77
2023/04/15 02:55:31;;;;;;;3.67;1.60;;;;;;;16.11;57.85;98094.53;4981311;28;20050;-77
2023/04/15 02:57:59;;;;;;;4.15;1.42;;;;;;;16.09;57.85;98093.91;5014254;28;20069;-78
2023/04/15 03:00:24;;;;;;;6.97;1.63;;;;;;;16.06;57.73;98097.69;4981618;28;20057;-77
2023/04/15 03:02:55;;;;;;;7.68;1.67;;;;;;;16.12;57.75;98113.81;4981099;28;20076;-78
2023/04/15 03:05:20;;;;;;;6.57;2.13;;;;;;;16.09;57.76;98117.59;4998202;28;20025;-78
2023/04/15 03:07:46;;;;;;;5.70;1.85;;;;;;;16.13;57.63;98123.34;4980485;28;20038;-78
2023/04/15 03:10:11;;;;;;;6.45;1.50;;;;;;;16.12;57.96;98127.78;4981160;28;20455;-77
2023/04/15 03:12:37;;;;;;;8.50;1.42;;;;;;;16.14;57.83;98135.53;4980960;28;20033;-77
2023/04/15 03:15:03;;;;;;;6.80;1.63;;;;;;;16.13;57.89;98132.09;4997319;28;20029;-77
2023/04/15 03:17:28;;;;;;;4.68;1.48;;;;;;;16.14;57.72;98138.97;4997286;28;20495;-76
2023/04/15 03:19:54;;;;;;;5.82;1.50;;;;;;;16.17;57.78;98151.00;4997092;28;20029;-76
2023/04/15 03:22:19;;;;;;;4.88;1.75;;;;;;;16.13;57.88;98150.50;4996675;28;20046;-76
2023/04/15 03:24:45;;;;;;;4.60;1.50;;;;;;;16.13;57.78;98154.94;4980355;28;20030;-76
2023/04/15 03:27:10;;;;;;;4.57;1.80;;;;;;;16.16;57.86;98147.56;4996896;28;20034;-76
2023/04/15 03:29:36;;;;;;;5.47;1.83;;;;;;;16.17;57.84;98153.63;4997045;28;20104;-76
2023/04/15 03:32:01;;;;;;;3.17;1.40;;;;;;;16.16;57.91;98154.59;4995623;28;20046;-76
2023/04/15 03:34:27;;;;;;;4.18;1.48;;;;;;;16.16;57.98;98144.06;4979965;28;20493;-75
2023/04/15 03:36:52;;;;;;;5.45;1.70;;;;;;;16.16;58.03;98134.38;4996471;28;20041;-76
2023/04/15 03:39:18;;;;;;;5.20;1.50;;;;;;;16.15;57.89;98140.63;4997166;28;20026;-76
2023/04/15 03:41:43;;;;;;;4.72;1.70;;;;;;;16.14;57.86;98138.97;4996764;28;20036;-77
2023/04/15 03:44:09;;;;;;;5.38;1.75;;;;;;;16.09;57.97;98143.94;4997094;28;20033;-77
2023/04/15 03:46:35;;;;;;;5.18;1.65;;;;;;;16.10;57.91;98142.94;4996591;28;20445;-77
2023/04/15 03:49:01;;;;;;;4.78;1.70;;;;;;;16.08;57.98;98135.22;4980296;28;20202;-77
2023/04/15 03:51:26;;;;;;;5.28;1.60;;;;;;;16.11;57.99;98128.78;4996210;28;20044;-75
2023/04/15 03:53:51;;;;;;;4.15;1.67;;;;;;;16.13;57.85;98142.63;4997298;28;20057;-77
2023/04/15 03:56:17;;;;;;;4.88;1.65;;;;;;;16.13;58.00;98150.50;4996802;28;20084;-77
2023/04/15 03:58:42;;;;;;;5.57;1.50;;;;;;;16.14;57.97;98159.22;5000112;28;20052;-80
2023/04/15 04:01:08;;;;;;;3.40;1.45;;;;;;;16.14;57.96;98175.84;4980518;28;20045;-78
2023/04/15 04:03:33;;;;;;;5.10;1.63;;;;;;;16.14;57.90;98178.47;4979834;28;20071;-76
2023/04/15 04:05:59;;;;;;;4.97;1.30;;;;;;;16.14;58.06;98178.47;4996326;28;20404;-77
2023/04/15 04:08:26;;;;;;;5.47;1.65;;;;;;;16.13;57.90;98168.94;4980161;28;20037;-78
2023/04/15 04:10:51;;;;;;;5.70;1.52;;;;;;;16.15;57.95;98176.69;4989373;28;20030;-79
2023/04/15 04:13:17;;;;;;;4.07;1.40;;;;;;;16.18;58.00;98184.25;4942017;28;20550;-79
2023/04/15 04:15:42;;;;;;;7.85;1.73;;;;;;;16.17;57.92;98195.75;4975069;28;20108;-77
2023/04/15 04:18:08;;;;;;;6.90;2.20;;;;;;;16.21;58.09;98202.34;4955116;28;20187;-77
2023/04/15 04:20:33;;;;;;;3.53;1.58;;;;;;;16.22;57.83;98202.16;4956138;28;20046;-77
2023/04/15 04:22:59;;;;;;;5.88;1.52;;;;;;;16.25;57.87;98196.56;4942401;28;20045;-78
2023/04/15 04:25:24;;;;;;;6.68;1.67;;;;;;;16.30;58.01;98198.69;4974216;28;20512;-81
2023/04/15 04:27:50;;;;;;;2.78;1.40;;;;;;;16.34;57.48;98197.38;4958676;28;20104;-81
2023/04/15 04:30:15;;;;;;;3.55;1.45;;;;;;;16.41;57.43;98189.63;4958736;28;20493;-79
2023/04/15 04:32:41;;;;;;;5.90;1.80;;;;;;;16.49;57.28;98184.34;4958431;28;20502;-79
2023/04/15 04:35:07;;;;;;;6.32;1.70;;;;;;;16.56;57.07;98187.13;4958261;28;20026;-79
2023/04/15 04:37:33;;;;;;;4.28;1.73;;;;;;;16.66;56.92;98181.66;4958479;28;20046;-80
2023/04/15 04:39:58;;;;;;;5.85;1.80;;;;;;;16.75;56.61;98170.94;4973683;28;20037;-79
2023/04/15 04:42:23;;;;;;;5.95;1.55;;;;;;;16.83;56.47;98164.81;4958256;28;20069;-79
2023/04/15 04:44:49;;;;;;;3.55;1.30;;;;;;;16.88;56.38;98174.88;4974590;28;20077;-81
2023/04/15 04:47:15;;;;;;;9.57;2.55;;;;;;;16.89;56.51;98195.78;4960316;28;20074;-83
2023/04/15 04:49:41;;;;;;;4.53;1.52;;;;;;;16.88;56.44;98198.59;4975705;28;20153;-82
2023/04/15 04:52:06;;;;;;;3.75;1.55;;;;;;;16.84;56.32;98195.47;4991283;28;20046;-82
2023/04/15 04:54:32;;;;;;;5.55;1.50;;;;;;;16.80;56.38;98208.13;4957240;28;20046;-81
2023/04/15 04:56:57;;;;;;;3.80;1.40;;;;;;;16.76;56.70;98214.75;4957500;28;20050;-81
2023/04/15 04:59:23;;;;;;;5.70;1.70;;;;;;;16.74;56.77;98216.72;4974433;28;20552;-82
2023/04/15 05:01:49;;;;;;;7.45;1.60;;;;;;;16.68;56.74;98225.28;4958556;28;20046;-81
2023/04/15 05:04:14;;;;;;;2.92;1.42;;;;;;;16.63;56.94;98220.56;4959778;28;20038;-83
2023/04/15 05:06:40;;;;;;;3.70;1.50;;;;;;;16.66;57.04;98216.75;4958793;28;20054;-82
2023/04/15 05:09:06;;;;;;;3.13;1.40;;;;;;;16.65;56.96;98212.44;4974839;28;20030;-81
2023/04/15 05:11:31;;;;;;;3.58;1.48;;;;;;;16.60;57.01;98207.72;4957907;28;20050;-82
2023/04/15 05:13:58;;;;;;;2.88;1.30;;;;;;;16.64;57.25;98201.09;4942137;28;20100;-81
2023/04/15 05:16:24;;;;;;;6.57;1.60;;;;;;;16.65;57.09;98204.53;4943122;28;20038;-81
2023/04/15 05:18:50;;;;;;;3.85;1.48;;;;;;;16.64;57.04;98200.28;4991983;28;20030;-79
2023/04/15 05:21:16;;;;;;;4.45;1.60;;;;;;;16.64;56.95;98213.47;4957928;28;20034;-83
2023/04/15 05:23:41;;;;;;;3.17;1.90;;;;;;;16.66;56.89;98218.56;4958003;28;20410;-82
2023/04/15 05:26:07;;;;;;;4.25;2.03;;;;;;;16.65;57.11;98217.72;4943272;28;20046;-80
2023/04/15 05:28:33;;;;;;;8.43;1.88;;;;;;;16.68;56.93;98221.84;4954480;28;20092;-81
2023/04/15 05:30:58;;;;;;;6.78;2.38;;;;;;;16.71;56.88;98216.25;4926010;28;20062;-85
2023/04/15 05:33:24;;;;;;;6.05;2.20;;;;;;;16.86;56.53;98221.66;4993182;28;20119;-78
2023/04/15 05:35:49;;;;;;;3.28;2.00;;;;;;;17.03;59.77;98215.34;4994018;28;20036;-77
2023/04/15 05:38:15;;;;;;;4.13;2.03;;;;;;;17.15;57.98;98213.97;4992729;28;20536;-76
2023/04/15 05:40:40;;;;;;;6.47;2.05;;;;;;;17.48;60.13;98218.25;4977607;28;20045;-78
2023/04/15 05:43:06;;;;;;;7.22;2.92;;;;;;;17.70;58.67;98216.63;4992855;28;20452;-80
2023/04/15 05:45:32;;;;;;;8.68;2.72;;;;;;;18.04;58.72;98224.19;4978245;28;20558;-82
2023/04/15 05:47:57;;;;;;;8.52;2.42;;;;;;;18.57;59.02;98226.00;4977624;28;20038;-79
2023/04/15 05:50:23;;;;;;;15.40;3.08;;;;;;;18.58;57.90;98225.81;4992658;28;20033;-76
2023/04/15 05:52:48;;;;;;;24.52;3.42;;;;;;;18.62;56.92;98227.09;5010885;28;20512;-78
2023/04/15 05:55:14;;;;;;;19.48;3.60;;;;;;;18.65;56.16;98222.47;5010026;28;20054;-81
2023/04/15 05:57:39;;;;;;;20.60;3.72;;;;;;;18.62;55.74;98227.09;4958987;28;20077;-81
2023/04/15 06:00:05;;;;;;;8.00;3.60;;;;;;;18.73;54.86;98239.03;4958154;28;20046;-77
2023/04/15 06:02:31;;;;;;;15.50;3.28;;;;;;;18.57;55.06;98240.03;4957838;28;20125;-81
2023/04/15 06:04:56;;;;;;;9.15;3.70;;;;;;;18.53;55.76;98246.69;4958064;28;20124;-82
2023/04/15 06:07:22;;;;;;;10.75;3.28;;;;;;;18.69;56.62;98245.72;4991062;28;20034;-80
2023/04/15 06:09:49;;;;;;;12.85;2.88;;;;;;;18.95;54.51;98263.78;4963023;28;20030;-79
2023/04/15 06:12:15;;;;;;;9.73;3.00;;;;;;;19.15;54.82;98265.91;4961699;28;20026;-83
2023/04/15 06:14:41;;;;;;;17.40;3.35;;;;;;;19.37;54.60;98266.78;4975351;28;20449;-80
2023/04/15 06:17:07;;;;;;;14.98;3.03;;;;;;;19.57;54.19;98266.19;4958537;28;20041;-78
2023/04/15 06:19:33;;;;;;;13.60;2.90;;;;;;;19.65;54.36;98266.09;4974883;28;20049;-83
2023/04/15 06:21:59;;;;;;;8.52;2.83;;;;;;;19.71;53.29;98273.28;4995366;28;20030;-81
2023/04/15 06:24:25;;;;;;;10.45;2.80;;;;;;;19.76;54.39;98278.84;4957570;28;20540;-73
2023/04/15 06:26:50;;;;;;;12.77;2.70;;;;;;;19.76;55.03;98273.56;4973565;28;20608;-74
2023/04/15 06:29:16;;;;;;;8.48;2.88;;;;;;;19.74;55.23;98287.97;4958119;28;20093;-77
2023/04/15 06:31:41;;;;;;;8.38;2.72;;;;;;;19.75;55.44;98297.56;4941718;28;20105;-80
2023/04/15 06:34:07;;;;;;;11.07;2.80;;;;;;;19.73;55.44;98289.78;4958607;28;20047;-78
2023/04/15 06:36:32;;;;;;;8.02;3.55;;;;;;;19.56;56.43;98297.16;4960570;28;20027;-78
2023/04/15 06:38:58;;;;;;;11.25;3.40;;;;;;;19.52;57.33;98306.47;4944258;28;20038;-74
2023/04/15 06:41:23;;;;;;;6.78;2.78;;;;;;;19.55;57.63;98308.75;4960894;28;20073;-74
2023/04/15 06:43:49;;;;;;;5.80;2.83;;;;;;;19.59;58.25;98311.81;4976648;28;20047;-76
2023/04/15 06:46:14;;;;;;;17.67;3.03;;;;;;;19.56;57.05;98313.03;4944417;28;20038;-78
2023/04/15 06:48:40;;;;;;;8.57;3.83;;;;;;;19.63;58.07;98324.50;4981688;28;20064;-82
2023/04/15 06:51:05;;;;;;;10.48;3.75;;;;;;;19.67;57.57;98325.78;4980792;28;20060;-78
2023/04/15 06:53:31;;;;;;;13.48;3.80;;;;;;;19.76;55.75;98317.75;4987421;28;20077;-77
2023/04/15 06:55:57;;;;;;;18.10;4.13;;;;;;;19.79;56.08;98322.69;4993127;28;20058;-79
2023/04/15 06:58:22;;;;;;;14.00;5.30;;;;;;;19.77;56.07;98322.06;4960764;28;20104;-82
2023/04/15 07:00:49;;;;;;;11.20;5.15;;;;;;;19.71;56.30;98334.19;4961866;28;20030;-79
2023/04/15 07:03:14;;;;;;;9.70;5.60;;;;;;;19.62;57.27;98338.75;4961440;28;20042;-80
2023/04/15 07:05:40;;;;;;;11.73;5.45;;;;;;;19.57;56.53;98335.03;4995978;28;20045;-78
2023/04/15 07:08:06;;;;;;;8.82;4.43;;;;;;;19.54;56.00;98341.50;4960045;28;20038;-79
2023/04/15 07:10:33;;;;;;;9.70;4.95;;;;;;;19.53;56.31;98350.47;4959784;28;20042;-78
2023/04/15 07:12:58;;;;;;;12.35;5.15;;;;;;;19.66;57.39;98365.69;4963071;28;20038;-83
2023/04/15 07:15:24;;;;;;;9.50;5.05;;;;;;;19.67;57.45;98354.06;4984054;28;20050;-85
2023/04/15 07:17:50;;;;;;;9.95;5.50;;;;;;;19.66;56.27;98353.28;4982009;28;20044;-78
2023/04/15 07:20:15;;;;;;;13.63;6.82;;;;;;;19.65;57.54;98354.25;4963649;28;20556;-77
2023/04/15 07:22:41;;;;;;;13.88;7.80;;;;;;;19.70;57.55;98351.91;4995707;28;20116;-77
2023/04/15 07:25:07;;;;;;;12.55;5.68;;;;;;;19.83;57.72;98359.22;4979637;28;20033;-76
2023/04/15 07:27:33;;;;;;;53.25;48.17;;;;;;;20.36;65.43;98356.28;4960053;28;20034;-79
2023/04/15 07:29:58;;;;;;;16.10;12.82;;;;;;;21.29;56.33;98363.38;4959492;28;20042;-75
2023/04/15 07:32:25;;;;;;;12.07;8.85;;;;;;;;;;5001304;28;20034;-78
2023/04/15 07:34:50;;;;;;;16.20;7.53;;;;;;;22.54;49.52;98363.25;4978254;28;20172;-78
2023/04/15 07:37:16;;;;;;;10.90;6.78;;;;;;;22.62;47.01;98370.22;4994568;28;20037;-78
2023/04/15 07:39:42;;;;;;;18.65;9.88;;;;;;;22.49;49.38;98369.19;4977961;28;20461;-74
2023/04/15 07:42:08;;;;;;;18.23;9.25;;;;;;;22.32;48.90;98376.72;4983803;28;20034;-74
2023/04/15 07:44:33;;;;;;;23.67;9.00;;;;;;;22.08;48.40;98374.59;4995695;28;20133;-83
2023/04/15 07:46:59;;;;;;;20.85;10.35;;;;;;;21.77;47.29;98376.72;4976845;28;20030;-80
2023/04/15 07:49:24;;;;;;;25.95;13.40;;;;;;;21.53;45.77;98378.03;5004709;28;20463;-79
2023/04/15 07:51:50;;;;;;;15.32;8.30;;;;;;;21.85;46.22;98375.72;5018612;28;20037;-79
2023/04/15 07:54:16;;;;;;;10.55;5.80;;;;;;;22.28;44.86;98378.13;4967886;28;20448;-81
2023/04/15 07:56:41;;;;;;;13.43;6.00;;;;;;;21.81;45.29;98377.16;4969715;28;20130;-80
2023/04/15 07:59:08;;;;;;;10.00;6.35;;;;;;;21.42;45.98;98384.69;4987458;28;20037;-78
2023/04/15 08:01:33;;;;;;;9.93;5.93;;;;;;;21.07;46.10;98386.50;4982047;28;20077;-80
2023/04/15 08:03:59;;;;;;;9.60;6.32;;;;;;;20.89;47.76;98386.97;4985943;28;20064;-75
2023/04/15 08:06:24;;;;;;;14.45;7.45;;;;;;;20.95;52.76;98402.13;4940852;28;20034;-74
2023/04/15 08:08:50;;;;;;;12.60;7.28;;;;;;;21.00;51.85;98389.13;4971507;28;20069;-76
2023/04/15 08:11:16;;;;;;;12.35;7.15;;;;;;;21.15;51.69;98389.00;4958890;28;20085;-79
2023/04/15 08:13:41;;;;;;;11.95;6.22;;;;;;;21.30;51.27;98394.19;4959637;28;20030;-75
2023/04/15 08:16:17;;;;;;;14.75;6.53;;;;;;;21.41;51.66;98387.53;4943934;28;20034;-75
2023/04/15 08:18:43;;;;;;;11.70;7.05;;;;;;;21.60;52.22;98384.22;4993796;28;20030;-84
2023/04/15 08:21:09;;;;;;;40.75;27.48;;;;;;;21.89;61.58;98390.25;4944869;28;20126;-75
2023/04/15 08:23:34;;;;;;;20.02;12.13;;;;;;;22.18;58.10;98391.78;4943367;28;20189;-74
2023/04/15 08:26:00;;;;;;;20.92;9.10;;;;;;;22.77;57.83;98387.63;4959632;28;20038;-73
2023/04/15 08:28:25;;;;;;;13.15;9.18;;;;;;;23.02;58.78;98396.81;4943911;28;20081;-77
2023/04/15 08:30:54;;;;;;;17.27;8.75;;;;;;;23.02;58.21;98386.97;4944390;28;20049;-79
2023/04/15 08:33:20;;;;;;;14.18;7.45;;;;;;;23.10;53.35;98391.31;4991164;28;20033;-75
2023/04/15 08:35:45;;;;;;;13.07;6.00;;;;;;;23.15;50.08;98394.19;4960762;28;20113;-77
2023/04/15 08:38:11;;;;;;;18.52;7.00;;;;;;;23.17;50.08;98386.81;4959315;28;20058;-79
2023/04/15 08:40:41;;;;;;;12.65;6.78;;;;;;;23.31;49.17;98398.25;4959268;28;20120;-76
2023/04/15 08:43:12;;;;;;;17.73;6.32;;;;;;;23.28;48.25;98390.69;4959362;28;20469;-79
2023/04/15 08:45:37;;;;;;;12.38;6.43;;;;;;;23.38;47.55;98390.25;4943697;28;20034;-81
2023/04/15 08:48:03;;;;;;;16.45;6.72;;;;;;;23.55;46.68;98391.44;4959071;28;20492;-77
2023/04/15 08:50:29;;;;;;;17.33;6.10;;;;;;;23.66;46.22;98380.13;4943313;28;20088;-75
2023/04/15 08:52:54;;;;;;;14.90;5.38;;;;;;;23.77;45.67;98378.66;4960067;28;20850;-82
2023/04/15 08:55:20;;;;;;;8.73;5.15;;;;;;;23.80;44.96;98382.75;4959763;28;20046;-79
2023/04/15 08:57:46;;;;;;;10.48;5.63;;;;;;;23.58;44.18;98385.69;4959598;28;20065;-80
2023/04/15 09:00:12;;;;;;;19.55;6.85;;;;;;;23.40;44.31;98381.00;4959872;28;20042;-82
2023/04/15 09:02:38;;;;;;;19.77;6.43;;;;;;;23.32;46.24;98378.56;4984109;28;20480;-80
2023/04/15 09:05:05;;;;;;;26.58;6.63;;;;;;;23.33;45.95;98382.06;4960338;28;20069;-85
2023/04/15 09:07:33;;;;;;;18.48;5.80;;;;;;;23.84;44.77;98368.81;4945511;28;20093;-84
2023/04/15 09:09:59;;;;;;;13.23;5.22;;;;;;;23.99;43.99;98378.41;4948690;28;20034;-81
2023/04/15 09:12:24;;;;;;;29.83;6.05;;;;;;;23.83;43.95;98371.66;4962643;28;20041;-83
2023/04/15 09:14:50;;;;;;;18.15;5.40;;;;;;;23.72;43.99;98370.47;4960863;28;20042;-82
2023/04/15 09:17:20;;;;;;;19.42;5.40;;;;;;;23.72;43.78;98369.66;5343348;23;20080;-84
2023/04/15 09:19:46;;;;;;;14.63;4.72;;;;;;;24.48;42.55;98360.03;5013231;28;20056;-81
2023/04/15 09:22:11;;;;;;;13.63;4.40;;;;;;;25.14;40.76;98366.69;5011108;28;20030;-83
2023/04/15 09:24:39;;;;;;;8.80;4.60;;;;;;;25.10;38.79;98354.84;5016136;28;20037;-81
2023/04/15 09:27:05;;;;;;;21.02;6.45;;;;;;;24.83;40.48;98359.59;5012799;28;20042;-79
2023/04/15 09:29:31;;;;;;;17.40;5.90;;;;;;;24.62;40.94;98358.94;4994934;28;20045;-80
2023/04/15 09:31:57;;;;;;;15.07;5.53;;;;;;;24.41;39.64;98351.28;5005819;28;20045;-85
2023/04/15 09:34:34;;;;;;;11.00;5.35;;;;;;;24.20;40.31;98346.06;5036858;28;20025;-87
2023/04/15 09:37:04;;;;;;;13.05;6.10;;;;;;;24.02;41.42;98356.63;5040888;28;20055;-85
2023/04/15 09:39:50;;;;;;;15.38;5.80;;;;;;;23.79;41.90;98352.59;5055953;28;20018;-90
2023/04/15 09:42:25;;;;;;;12.43;5.15;;;;;;;24.29;40.32;98353.78;5045960;28;20030;-87
2023/04/15 09:44:53;;;;;;;12.27;4.65;;;;;;;24.64;37.97;98351.53;5046296;28;20030;-87
2023/04/15 09:47:31;;;;;;;14.32;4.07;;;;;;;24.72;36.45;98345.91;5016935;28;20038;-80
2023/04/15 09:49:57;;;;;;;15.48;4.15;;;;;;;24.74;35.03;98349.19;5008896;28;20213;-78
2023/04/15 09:52:23;;;;;;;8.30;3.70;;;;;;;24.06;34.45;98335.69;5014038;28;20404;-77
2023/04/15 09:54:51;;;;;;;16.98;5.45;;;;;;;24.06;35.58;98341.84;5001310;28;20026;-76
2023/04/15 09:57:17;;;;;;;11.52;4.47;;;;;;;24.00;34.71;98343.53;5010341;28;20037;-76
2023/04/15 09:59:42;;;;;;;11.52;3.70;;;;;;;23.46;35.90;98352.72;5011294;28;20065;-76
2023/04/15 10:02:08;;;;;;;7.60;3.53;;;;;;;23.87;34.89;98340.91;5010607;28;20092;-78
2023/04/15 10:04:36;;;;;;;11.73;4.30;;;;;;;24.13;35.15;98331.97;5007416;28;20034;-81
2023/04/15 10:07:02;;;;;;;;;;;;;;;24.32;33.40;98332.03;4991531;28;20034;-75
2023/04/15 10:09:28;;;;;;;8.95;3.33;;;;;;;24.22;33.60;98327.19;4992683;28;19910;-76
2023/04/15 10:11:53;;;;;;;7.40;2.90;;;;;;;24.09;33.83;98329.94;4961598;28;20073;-78
2023/04/15 10:14:19;;;;;;;6.32;3.30;;;;;;;24.09;33.92;98329.94;4978236;28;20042;-76
2023/04/15 10:16:47;;;;;;;12.38;2.90;;;;;;;24.19;33.99;98328.44;4963775;28;20043;-78
2023/04/15 10:19:15;;;;;;;8.20;3.00;;;;;;;24.27;32.88;98316.66;4998182;28;20424;-77
2023/04/15 10:21:40;;;;;;;5.53;2.43;;;;;;;23.92;33.18;98338.44;4982562;28;20034;-75
2023/04/15 10:24:07;;;;;;;6.18;2.40;;;;;;;23.67;32.63;98317.81;4981641;28;20405;-75
2023/04/15 10:26:32;;;;;;;9.13;2.97;;;;;;;23.27;33.17;98317.94;4981926;28;20036;-76
2023/04/15 10:28:58;;;;;;;5.70;2.47;;;;;;;22.86;33.39;98324.34;4981419;28;20033;-77
2023/04/15 10:31:24;;;;;;;7.57;2.42;;;;;;;22.97;33.75;98325.56;4981188;28;20459;-77
2023/04/15 10:33:50;;;;;;;4.32;2.42;;;;;;;22.99;34.28;98322.69;4981210;28;20124;-76
2023/04/15 10:36:16;;;;;;;9.95;3.03;;;;;;;22.71;34.39;98318.44;4981289;28;20144;-76
2023/04/15 10:38:42;;;;;;;10.23;3.30;;;;;;;22.79;34.55;98314.72;4981811;28;20088;-77
2023/04/15 10:41:22;;;;;;;8.57;2.88;;;;;;;22.89;34.67;98312.47;4981340;28;20033;-76
2023/04/15 10:43:55;;;;;;;6.32;2.78;;;;;;;23.05;35.03;98306.72;4981840;28;20038;-75
2023/04/15 10:46:22;;;;;;;8.95;2.63;;;;;;;23.30;35.10;98308.75;4981283;28;20038;-76
2023/04/15 10:48:52;;;;;;;7.40;2.72;;;;;;;23.43;33.84;98315.88;4997142;28;20121;-75
2023/04/15 10:51:28;;;;;;;9.15;2.90;;;;;;;23.09;33.39;98315.16;4981368;28;20393;-77
2023/04/15 10:53:58;;;;;;;6.32;2.45;;;;;;;22.72;34.23;98320.91;4981082;28;20041;-77
2023/04/15 10:56:24;;;;;;;9.68;2.85;;;;;;;22.81;34.23;98310.84;4997031;28;20030;-76
2023/04/15 10:58:50;;;;;;;6.43;2.83;;;;;;;22.85;34.86;98309.44;4981426;28;20030;-76
2023/04/15 11:01:15;;;;;;;8.32;3.00;;;;;;;22.67;34.80;98319.88;4980974;28;20034;-77
2023/04/15 11:03:44;;;;;;;4.03;2.03;;;;;;;22.42;34.21;98307.19;4981199;28;20037;-76
2023/04/15 11:06:10;;;;;;;10.27;2.63;;;;;;;22.31;34.40;98302.47;4997274;28;20030;-76
2023/04/15 11:08:58;;;;;;;5.47;2.42;;;;;;;22.32;34.57;98304.13;4984739;28;20194;-77
2023/04/15 11:11:42;;;;;;;;;;;;;;;22.28;34.56;98305.50;4997554;28;20031;-73
2023/04/15 11:14:07;;;;;;;8.75;2.25;;;;;;;22.14;34.36;98302.00;4977740;28;19909;-80
2023/04/15 11:16:41;;;;;;;9.52;3.67;;;;;;;22.31;40.17;98308.63;4977772;28;20038;-73
2023/04/15 11:19:07;;;;;;;8.02;3.33;;;;;;;22.34;37.39;98307.38;4949001;28;20406;-72
2023/04/15 11:21:34;;;;;;;8.85;4.30;;;;;;;22.37;41.58;98301.66;4973402;28;20046;-75
2023/04/15 11:24:00;;;;;;;6.72;3.40;;;;;;;22.17;39.45;98310.41;4990333;28;20049;-76
2023/04/15 11:26:26;;;;;;;9.27;3.60;;;;;;;22.05;41.34;98304.84;4958697;28;20057;-78